Time;durP1;ratioP1;P1;durP2;ratioP2;P2;SDS_P1;SDS_P2;PMS_P1;PMS_P2;Temp;Humidity;BMP_temperature;BMP_pressure;BME280_temperature;BME280_humidity;BME280_pressure;Samples;Min_cycle;Max_cycle;Signal;HPM_P1;HPM_P2
2024/02/11 00:02:09;;;;;;;27.85;15.57;;;;;;;;;;5035317;28;20099;-77
2024/02/11 00:04:35;;;;;;;28.13;15.43;;;;;;;;;;5030004;28;20087;-78
2024/02/11 00:07:00;;;;;;;27.55;15.25;;;;;;;;;;5047242;28;20033;-77
2024/02/11 00:09:27;;;;;;;27.73;12.88;;;;;;;;;;5047890;28;20521;-77
2024/02/11 00:11:52;;;;;;;21.80;12.40;;;;;;;;;;5055861;28;20047;-78
2024/02/11 00:14:20;;;;;;;30.40;16.38;;;;;;;;;;5043619;28;20033;-78
2024/02/11 00:16:46;;;;;;;22.98;13.60;;;;;;;;;;5045504;28;20488;-77
2024/02/11 00:19:12;;;;;;;25.77;14.25;;;;;;;;;;5028167;28;20083;-77
2024/02/11 00:21:38;;;;;;;19.92;11.00;;;;;;;;;;5026022;28;20067;-77
2024/02/11 00:24:03;;;;;;;24.38;13.57;;;;;;;;;;5032763;28;20033;-77
2024/02/11 00:26:29;;;;;;;26.67;14.68;;;;;;;;;;5022244;28;20091;-77
2024/02/11 00:28:54;;;;;;;26.58;13.93;;;;;;;;;;5022823;28;20112;-77
2024/02/11 00:31:24;;;;;;;30.17;15.90;;;;;;;;;;5023426;28;20037;-77
2024/02/11 00:33:51;;;;;;;28.10;16.13;;;;;;;;;;5041074;28;20032;-77
2024/02/11 00:36:16;;;;;;;28.02;15.95;;;;;;;;;;5019478;28;20045;-77
2024/02/11 00:38:42;;;;;;;30.83;16.63;;;;;;;;;;5004445;28;20105;-77
2024/02/11 00:41:07;;;;;;;25.33;14.05;;;;;;;;;;5029225;28;20576;-77
2024/02/11 00:43:36;;;;;;;27.20;16.00;;;;;;;;;;5042289;28;20066;-76
2024/02/11 00:46:02;;;;;;;25.65;14.60;;;;;;;;;;5040767;28;20037;-77
2024/02/11 00:48:28;;;;;;;27.52;15.73;;;;;;;;;;5031452;28;20291;-77
2024/02/11 00:50:53;;;;;;;29.42;15.60;;;;;;;;;;5024027;28;20041;-77
2024/02/11 00:53:19;;;;;;;26.45;15.13;;;;;;;;;;5010383;28;20025;-77
2024/02/11 00:55:44;;;;;;;19.13;10.90;;;;;;;;;;5036344;28;20069;-77
2024/02/11 00:58:10;;;;;;;28.75;16.15;;;;;;;;;;5023058;28;20496;-77
2024/02/11 01:00:35;;;;;;;26.83;14.50;;;;;;;;;;5032154;28;20025;-78
2024/02/11 01:03:00;;;;;;;30.73;15.98;;;;;;;;;;5034393;28;20464;-78
2024/02/11 01:05:26;;;;;;;25.73;14.73;;;;;;;;;;5038370;28;20041;-77
2024/02/11 01:07:51;;;;;;;28.17;15.48;;;;;;;;;;5032308;28;20497;-77
2024/02/11 01:10:17;;;;;;;29.15;15.57;;;;;;;;;;5019006;28;20497;-78
2024/02/11 01:12:44;;;;;;;25.35;13.60;;;;;;;;;;5027806;28;20392;-78
2024/02/11 01:15:12;;;;;;;27.73;14.98;;;;;;;;;;5030664;28;20141;-77
2024/02/11 01:17:38;;;;;;;26.15;14.68;;;;;;;;;;5028265;28;20037;-77
2024/02/11 01:20:05;;;;;;;29.40;15.63;;;;;;;;;;5036364;28;20052;-78
2024/02/11 01:22:31;;;;;;;30.77;16.08;;;;;;;;;;5023444;28;20045;-77
2024/02/11 01:24:56;;;;;;;25.90;14.48;;;;;;;;;;5027746;28;20041;-77
2024/02/11 01:27:22;;;;;;;28.95;16.90;;;;;;;;;;5025745;28;20040;-77
2024/02/11 01:29:47;;;;;;;27.90;15.60;;;;;;;;;;5035888;28;20059;-77
2024/02/11 01:32:15;;;;;;;19.05;11.48;;;;;;;;;;5017294;28;20041;-78
2024/02/11 01:34:41;;;;;;;29.95;15.93;;;;;;;;;;5004923;28;20069;-77
2024/02/11 01:37:07;;;;;;;24.50;13.88;;;;;;;;;;5030061;28;20135;-78
2024/02/11 01:39:32;;;;;;;20.33;12.65;;;;;;;;;;5035766;28;20521;-78
2024/02/11 01:42:01;;;;;;;14.45;8.43;;;;;;;;;;5037052;28;20037;-79
2024/02/11 01:44:27;;;;;;;17.35;10.15;;;;;;;;;;5035660;28;20045;-78
2024/02/11 01:46:53;;;;;;;28.63;15.40;;;;;;;;;;5042675;28;20043;-79
2024/02/11 01:49:19;;;;;;;28.17;14.55;;;;;;;;;;5023308;28;20530;-79
2024/02/11 01:51:45;;;;;;;28.30;15.35;;;;;;;;;;5044970;28;20124;-78
2024/02/11 01:54:15;;;;;;;12.70;7.72;;;;;;;;;;5030092;28;20072;-79
2024/02/11 01:56:43;;;;;;;17.63;9.80;;;;;;;;;;5030473;28;20487;-79
2024/02/11 01:59:09;;;;;;;25.15;13.77;;;;;;;;;;5004347;28;20514;-79
2024/02/11 02:01:35;;;;;;;14.55;8.52;;;;;;;;;;5052796;28;20041;-79
2024/02/11 02:04:00;;;;;;;27.73;14.52;;;;;;;;;;5038441;28;20116;-79
2024/02/11 02:06:26;;;;;;;26.30;13.65;;;;;;;;;;5032191;28;20300;-78
2024/02/11 02:08:52;;;;;;;26.13;14.73;;;;;;;;;;5038230;28;20098;-78
2024/02/11 02:11:19;;;;;;;22.77;12.10;;;;;;;;;;5048617;28;20028;-78
2024/02/11 02:13:44;;;;;;;19.23;10.77;;;;;;;;;;5038280;28;20076;-78
2024/02/11 02:16:10;;;;;;;28.45;16.48;;;;;;;;;;5023629;28;20037;-78
2024/02/11 02:18:35;;;;;;;17.45;10.05;;;;;;;;;;5028882;28;20044;-79
2024/02/11 02:21:02;;;;;;;19.55;11.93;;;;;;;;;;5041331;28;20475;-78
2024/02/11 02:23:29;;;;;;;16.60;9.80;;;;;;;;;;5042421;28;20871;-78
2024/02/11 02:25:58;;;;;;;33.17;17.27;;;;;;;;;;5029217;28;20036;-78
2024/02/11 02:28:25;;;;;;;25.98;14.25;;;;;;;;;;5048501;28;20034;-79
2024/02/11 02:30:51;;;;;;;21.48;12.02;;;;;;;;;;5038859;28;20589;-78
2024/02/11 02:33:16;;;;;;;32.45;16.08;;;;;;;;;;5018078;28;20051;-79
2024/02/11 02:35:42;;;;;;;19.67;10.25;;;;;;;;;;5026430;28;20446;-80
2024/02/11 02:38:07;;;;;;;28.10;14.77;;;;;;;;;;5036681;28;20030;-79
2024/02/11 02:40:33;;;;;;;27.13;13.70;;;;;;;;;;5028226;28;20033;-79
2024/02/11 02:43:25;;;;;;;28.42;14.60;;;;;;;;;;5026823;28;20472;-78
2024/02/11 02:45:56;;;;;;;15.45;9.15;;;;;;;;;;5023088;28;20047;-78
2024/02/11 02:48:46;;;;;;;25.20;13.20;;;;;;;;;;5026416;28;20136;-79
2024/02/11 02:51:31;;;;;;;27.13;15.40;;;;;;;;;;5037016;28;20069;-77
2024/02/11 02:53:56;;;;;;;23.13;13.65;;;;;;;;;;5041529;28;20022;-78
2024/02/11 02:56:26;;;;;;;25.23;13.75;;;;;;;;;;5041160;28;20035;-77
2024/02/11 02:58:52;;;;;;;16.48;9.27;;;;;;;;;;5041983;28;20029;-78
2024/02/11 03:01:20;;;;;;;28.85;16.13;;;;;;;;;;5041978;28;20045;-78
2024/02/11 03:03:48;;;;;;;25.15;13.60;;;;;;;;;;5042048;28;20063;-78
2024/02/11 03:06:14;;;;;;;34.75;17.98;;;;;;;;;;5044313;28;20056;-78
2024/02/11 03:08:42;;;;;;;35.53;17.15;;;;;;;;;;5046092;28;20017;-79
2024/02/11 03:11:08;;;;;;;31.20;17.65;;;;;;;;;;5041043;28;19998;-78
2024/02/11 03:13:33;;;;;;;23.17;11.85;;;;;;;;;;5043192;28;20028;-77
2024/02/11 03:15:58;;;;;;;18.45;9.43;;;;;;;;;;5042213;28;20029;-78
2024/02/11 03:18:24;;;;;;;26.95;15.50;;;;;;;;;;5052686;28;20105;-78
2024/02/11 03:20:50;;;;;;;32.45;18.13;;;;;;;;;;5045185;28;20391;-78
2024/02/11 03:23:15;;;;;;;23.33;13.80;;;;;;;;;;5051905;28;20024;-78
2024/02/11 03:25:40;;;;;;;36.00;16.55;;;;;;;;;;5056142;28;20025;-79
2024/02/11 03:28:07;;;;;;;31.70;16.73;;;;;;;;;;5044348;28;20044;-78
2024/02/11 03:30:32;;;;;;;16.77;10.57;;;;;;;;;;5057489;28;20044;-79
2024/02/11 03:32:58;;;;;;;23.70;13.95;;;;;;;;;;5034128;28;20029;-79
2024/02/11 03:35:24;;;;;;;30.90;16.33;;;;;;;;;;5032774;28;20025;-79
2024/02/11 03:37:49;;;;;;;32.00;17.02;;;;;;;;;;5030754;28;20109;-78
2024/02/11 03:40:16;;;;;;;27.83;14.90;;;;;;;;;;5033513;28;20030;-78
2024/02/11 03:42:43;;;;;;;19.05;11.65;;;;;;;;;;5035828;28;20100;-78
2024/02/11 03:45:09;;;;;;;28.55;15.75;;;;;;;;;;5031452;28;20017;-78
2024/02/11 03:47:35;;;;;;;22.92;13.05;;;;;;;;;;5041023;28;20097;-79
2024/02/11 03:50:01;;;;;;;32.67;18.25;;;;;;;;;;5030193;28;20017;-78
2024/02/11 03:52:26;;;;;;;25.05;13.02;;;;;;;;;;5044983;28;20395;-78
2024/02/11 03:54:52;;;;;;;29.83;16.30;;;;;;;;;;5031453;28;20033;-78
2024/02/11 03:57:17;;;;;;;19.40;11.48;;;;;;;;;;5031848;28;20536;-78
2024/02/11 03:59:45;;;;;;;36.53;19.73;;;;;;;;;;5032647;28;20034;-77
2024/02/11 04:02:11;;;;;;;29.75;16.42;;;;;;;;;;5041542;28;21383;-78
2024/02/11 04:04:39;;;;;;;30.95;16.33;;;;;;;;;;5032996;28;20025;-78
2024/02/11 04:07:09;;;;;;;32.13;17.08;;;;;;;;;;5034557;28;20108;-78
2024/02/11 04:09:39;;;;;;;30.30;16.85;;;;;;;;;;5027486;28;20029;-78
2024/02/11 04:12:08;;;;;;;31.02;16.80;;;;;;;;;;5027550;28;20034;-79
2024/02/11 04:14:36;;;;;;;33.13;15.98;;;;;;;;;;5042297;28;20033;-77
2024/02/11 04:17:13;;;;;;;35.17;17.20;;;;;;;;;;5031126;28;20053;-79
2024/02/11 04:19:54;;;;;;;32.72;17.10;;;;;;;;;;5040057;28;20031;-79
2024/02/11 04:22:36;;;;;;;19.80;11.52;;;;;;;;;;5019639;28;20386;-78
2024/02/11 04:25:05;;;;;;;31.15;15.93;;;;;;;;;;5035692;28;20474;-79
2024/02/11 04:27:59;;;;;;;32.58;16.65;;;;;;;;;;5034638;28;20053;-79
2024/02/11 04:30:32;;;;;;;32.20;17.75;;;;;;;;;;5029967;28;20080;-78
2024/02/11 04:33:03;;;;;;;33.40;17.20;;;;;;;;;;5033790;28;20029;-79
2024/02/11 04:35:30;;;;;;;29.58;16.40;;;;;;;;;;5047272;28;20029;-79
2024/02/11 04:37:59;;;;;;;33.60;17.33;;;;;;;;;;5035762;28;20026;-79
2024/02/11 04:40:25;;;;;;;32.75;16.48;;;;;;;;;;5034541;28;20095;-79
2024/02/11 04:42:56;;;;;;;30.67;16.15;;;;;;;;;;5035321;28;20021;-79
2024/02/11 04:45:23;;;;;;;;;;;;;;;;;;5039937;28;20025;-80
2024/02/11 04:48:04;;;;;;;32.13;15.82;;;;;;;;;;5041007;28;20612;-80
2024/02/11 04:51:15;;;;;;;33.83;17.52;;;;;;;;;;5031853;28;20069;-80
2024/02/11 04:54:28;;;;;;;38.35;19.02;;;;;;;;;;5039894;28;20030;-80
2024/02/11 04:57:22;;;;;;;34.90;17.58;;;;;;;;;;5049490;28;20132;-80
2024/02/11 04:59:52;;;;;;;33.25;16.30;;;;;;;;;;5043207;28;20516;-79
2024/02/11 05:02:18;;;;;;;37.63;18.17;;;;;;;;;;5029250;28;20065;-80
2024/02/11 05:04:43;;;;;;;36.83;17.85;;;;;;;;;;5033322;28;20041;-78
2024/02/11 05:07:09;;;;;;;34.33;17.52;;;;;;;;;;5046816;28;20021;-79
2024/02/11 05:09:37;;;;;;;35.83;17.58;;;;;;;;;;5030617;28;20026;-79
2024/02/11 05:12:07;;;;;;;34.13;16.63;;;;;;;;;;5026442;28;20029;-77
2024/02/11 05:14:34;;;;;;;23.00;12.68;;;;;;;;;;5028512;28;20639;-79
2024/02/11 05:17:02;;;;;;;33.53;17.52;;;;;;;;;;5027939;28;20041;-78
2024/02/11 05:19:29;;;;;;;37.05;17.38;;;;;;;;;;5044376;28;20021;-78
2024/02/11 05:21:55;;;;;;;33.33;16.65;;;;;;;;;;5030115;28;20037;-78
2024/02/11 05:24:20;;;;;;;31.98;16.90;;;;;;;;;;5051317;28;20037;-78
2024/02/11 05:26:46;;;;;;;29.85;16.70;;;;;;;;;;5048157;28;20033;-78
2024/02/11 05:29:11;;;;;;;8.82;6.43;;;;;;;;;;5041079;28;20025;-78
2024/02/11 05:31:37;;;;;;;34.78;17.75;;;;;;;;;;5043544;28;20203;-77
2024/02/11 05:34:05;;;;;;;32.85;17.20;;;;;;;;;;5034756;28;20056;-78
2024/02/11 05:36:31;;;;;;;33.58;17.00;;;;;;;;;;5035759;28;20017;-78
2024/02/11 05:38:57;;;;;;;33.67;17.17;;;;;;;;;;5028251;28;20103;-78
2024/02/11 05:41:22;;;;;;;32.22;17.20;;;;;;;;;;5036589;28;20478;-77
2024/02/11 05:43:48;;;;;;;33.75;17.05;;;;;;;;;;5035696;28;20100;-77
2024/02/11 05:46:14;;;;;;;35.53;17.92;;;;;;;;;;5032672;28;20505;-77
2024/02/11 05:48:40;;;;;;;28.92;15.43;;;;;;;;;;5038563;28;20048;-77
2024/02/11 05:51:05;;;;;;;30.60;15.50;;;;;;;;;;5043122;28;20444;-77
2024/02/11 05:53:33;;;;;;;13.88;8.75;;;;;;;;;;5050517;28;20052;-77
2024/02/11 05:55:58;;;;;;;35.13;17.65;;;;;;;;;;5039533;28;20020;-77
2024/02/11 05:58:23;;;;;;;37.53;19.67;;;;;;;;;;5039752;28;20029;-78
2024/02/11 06:00:49;;;;;;;37.80;17.65;;;;;;;;;;5032908;28;20048;-77
2024/02/11 06:03:20;;;;;;;31.85;17.20;;;;;;;;;;5039641;28;20458;-77
2024/02/11 06:05:46;;;;;;;37.25;17.50;;;;;;;;;;5037493;28;20022;-77
2024/02/11 06:08:12;;;;;;;38.50;19.08;;;;;;;;;;5031410;28;20030;-77
2024/02/11 06:10:41;;;;;;;38.25;18.90;;;;;;;;;;5032152;28;20056;-77
2024/02/11 06:13:08;;;;;;;38.15;19.50;;;;;;;;;;5016385;28;20524;-77
2024/02/11 06:15:37;;;;;;;40.50;19.08;;;;;;;;;;5014995;28;20105;-78
2024/02/11 06:18:04;;;;;;;36.15;18.77;;;;;;;;;;5032692;28;20056;-79
2024/02/11 06:20:53;;;;;;;36.13;19.05;;;;;;;;;;5027546;28;20033;-79
2024/02/11 06:23:20;;;;;;;34.00;17.80;;;;;;;;;;5043086;28;20047;-78
2024/02/11 06:25:52;;;;;;;40.65;18.90;;;;;;;;;;5039412;28;20033;-78
2024/02/11 06:28:18;;;;;;;;;;;;;;;;;;5037481;28;20024;-78
2024/02/11 06:30:46;;;;;;;41.40;18.85;;;;;;;;;;5033415;28;20275;-78
2024/02/11 06:33:16;;;;;;;42.30;19.05;;;;;;;;;;5034800;28;20111;-78
2024/02/11 06:35:46;;;;;;;36.00;18.77;;;;;;;;;;5034408;28;20760;-77
2024/02/11 06:38:12;;;;;;;37.13;19.80;;;;;;;;;;5036757;28;20040;-79
2024/02/11 06:41:11;;;;;;;42.55;18.15;;;;;;;;;;5037567;28;20102;-78
2024/02/11 06:43:39;;;;;;;37.88;18.67;;;;;;;;;;5041074;28;20151;-78
2024/02/11 06:46:46;;;;;;;42.70;20.10;;;;;;;;;;5035340;28;20025;-79
2024/02/11 06:49:15;;;;;;;38.67;19.00;;;;;;;;;;5045250;28;20036;-78
2024/02/11 06:51:40;;;;;;;38.63;18.90;;;;;;;;;;5032264;28;20033;-78
2024/02/11 06:54:06;;;;;;;38.42;18.45;;;;;;;;;;5038271;28;20029;-78
2024/02/11 06:56:33;;;;;;;41.53;18.52;;;;;;;;;;5031388;28;20026;-78
2024/02/11 06:58:58;;;;;;;36.60;18.50;;;;;;;;;;5041765;28;20040;-78
2024/02/11 07:01:24;;;;;;;35.33;16.40;;;;;;;;;;5031266;28;20116;-78
2024/02/11 07:03:54;;;;;;;44.17;20.23;;;;;;;;;;5036662;28;20037;-78
2024/02/11 07:06:23;;;;;;;38.45;18.60;;;;;;;;;;5037576;28;20026;-79
2024/02/11 07:08:49;;;;;;;36.03;17.27;;;;;;;;;;5022538;28;20034;-78
2024/02/11 07:11:18;;;;;;;30.00;14.95;;;;;;;;;;5048444;28;20021;-79
2024/02/11 07:13:48;;;;;;;34.33;17.00;;;;;;;;;;5044762;28;20030;-79
2024/02/11 07:16:17;;;;;;;35.72;17.25;;;;;;;;;;5036232;28;20034;-79
2024/02/11 07:18:43;;;;;;;36.40;17.98;;;;;;;;;;5029870;28;20101;-77
2024/02/11 07:21:12;;;;;;;33.33;16.13;;;;;;;;;;5028060;28;20053;-78
2024/02/11 07:23:38;;;;;;;34.00;16.75;;;;;;;;;;5025024;28;20578;-77
2024/02/11 07:26:04;;;;;;;38.67;18.10;;;;;;;;;;5037192;28;20025;-77
2024/02/11 07:28:30;;;;;;;39.83;18.67;;;;;;;;;;5028354;28;20466;-77
2024/02/11 07:30:56;;;;;;;41.50;20.10;;;;;;;;;;5030789;28;20550;-78
2024/02/11 07:33:23;;;;;;;23.85;12.75;;;;;;;;;;5029250;28;20038;-77
2024/02/11 07:35:49;;;;;;;46.05;20.10;;;;;;;;;;5027029;28;20033;-76
2024/02/11 07:38:15;;;;;;;36.40;17.08;;;;;;;;;;5015863;28;20099;-77
2024/02/11 07:40:41;;;;;;;45.40;20.33;;;;;;;;;;5030217;28;20221;-77
2024/02/11 07:43:09;;;;;;;46.15;19.40;;;;;;;;;;5027403;28;20478;-77
2024/02/11 07:45:38;;;;;;;43.58;17.27;;;;;;;;;;5030139;28;20029;-77
2024/02/11 07:48:05;;;;;;;48.50;20.33;;;;;;;;;;5032952;28;20017;-78
2024/02/11 07:50:33;;;;;;;54.15;23.50;;;;;;;;;;5020763;28;20033;-78
2024/02/11 07:52:58;;;;;;;40.30;17.92;;;;;;;;;;5022005;28;20643;-78
2024/02/11 07:55:24;;;;;;;35.22;15.93;;;;;;;;;;5026971;28;20033;-78
2024/02/11 07:57:49;;;;;;;31.42;14.20;;;;;;;;;;5022566;28;20398;-78
2024/02/11 08:00:14;;;;;;;32.90;15.63;;;;;;;;;;5032270;28;20025;-78
2024/02/11 08:02:40;;;;;;;32.90;15.20;;;;;;;;;;5031863;28;20025;-78
2024/02/11 08:05:06;;;;;;;49.50;19.08;;;;;;;;;;5031683;28;20028;-78
2024/02/11 08:07:31;;;;;;;28.33;13.07;;;;;;;;;;5028167;28;20025;-78
2024/02/11 08:09:57;;;;;;;44.70;19.77;;;;;;;;;;5027943;28;20070;-78
2024/02/11 08:12:22;;;;;;;40.05;17.35;;;;;;;;;;5028354;28;20024;-78
2024/02/11 08:14:47;;;;;;;22.50;11.82;;;;;;;;;;5024397;28;20474;-78
2024/02/11 08:17:13;;;;;;;41.33;18.50;;;;;;;;;;5028123;28;20029;-78
2024/02/11 08:19:39;;;;;;;41.90;19.58;;;;;;;;;;5032362;28;20094;-78
2024/02/11 08:22:06;;;;;;;34.83;16.48;;;;;;;;;;5033321;28;20021;-78
2024/02/11 08:24:33;;;;;;;42.50;17.88;;;;;;;;;;5028144;28;20029;-78
2024/02/11 08:26:58;;;;;;;32.90;14.93;;;;;;;;;;5026411;28;20067;-78
2024/02/11 08:29:23;;;;;;;41.20;18.80;;;;;;;;;;5019364;28;20025;-78
2024/02/11 08:31:50;;;;;;;41.78;18.35;;;;;;;;;;5026867;28;20478;-79
2024/02/11 08:34:15;;;;;;;39.35;18.35;;;;;;;;;;5032328;28;20103;-78
2024/02/11 08:36:41;;;;;;;38.92;17.70;;;;;;;;;;5023788;28;20660;-78
2024/02/11 08:39:07;;;;;;;42.05;19.73;;;;;;;;;;5022537;28;20017;-78
2024/02/11 08:41:33;;;;;;;40.45;19.52;;;;;;;;;;5031425;28;20026;-79
2024/02/11 08:43:59;;;;;;;45.85;20.90;;;;;;;;;;5029060;28;20391;-78
2024/02/11 08:46:24;;;;;;;44.55;21.42;;;;;;;;;;5025519;28;20117;-78
2024/02/11 08:48:50;;;;;;;44.97;21.45;;;;;;;;;;5025570;28;20110;-78
2024/02/11 08:51:20;;;;;;;44.72;21.05;;;;;;;;;;5023476;28;20024;-79
2024/02/11 08:53:46;;;;;;;45.13;20.95;;;;;;;;;;5034440;28;20064;-79
2024/02/11 08:56:12;;;;;;;45.25;20.20;;;;;;;;;;5038657;28;20056;-79
2024/02/11 08:58:37;;;;;;;45.83;21.23;;;;;;;;;;5032030;28;20097;-79
2024/02/11 09:01:03;;;;;;;47.35;21.42;;;;;;;;;;5035449;28;20057;-79
2024/02/11 09:03:28;;;;;;;46.67;22.65;;;;;;;;;;5037743;28;20029;-79
2024/02/11 09:05:55;;;;;;;50.65;23.25;;;;;;;;;;5037575;28;20021;-79
2024/02/11 09:08:24;;;;;;;43.97;20.63;;;;;;;;;;5033550;28;20071;-79
2024/02/11 09:10:50;;;;;;;47.63;23.20;;;;;;;;;;5032029;28;20025;-79
2024/02/11 09:13:15;;;;;;;46.47;21.83;;;;;;;;;;5029497;28;20029;-79
2024/02/11 09:15:41;;;;;;;44.83;21.40;;;;;;;;;;5031266;28;20029;-79
2024/02/11 09:18:08;;;;;;;38.00;18.63;;;;;;;;;;5024765;28;20032;-79
2024/02/11 09:20:35;;;;;;;44.10;21.33;;;;;;;;;;5023146;28;20064;-79
2024/02/11 09:23:02;;;;;;;44.33;20.77;;;;;;;;;;5025314;28;20026;-79
2024/02/11 09:25:28;;;;;;;49.05;22.55;;;;;;;;;;5030356;28;20025;-79
2024/02/11 09:27:55;;;;;;;33.38;16.27;;;;;;;;;;5030865;28;20478;-79
2024/02/11 09:30:21;;;;;;;47.83;21.35;;;;;;;;;;5028799;28;20059;-79
2024/02/11 09:32:48;;;;;;;47.33;21.73;;;;;;;;;;5029193;28;20075;-79
2024/02/11 09:35:17;;;;;;;34.78;17.17;;;;;;;;;;5026304;28;20025;-79
2024/02/11 09:37:44;;;;;;;42.72;20.10;;;;;;;;;;5025677;28;20494;-79
2024/02/11 09:40:10;;;;;;;43.03;21.13;;;;;;;;;;5030311;28;20026;-80
2024/02/11 09:42:37;;;;;;;45.30;20.90;;;;;;;;;;5034526;28;20017;-79
2024/02/11 09:45:05;;;;;;;41.70;19.38;;;;;;;;;;5025691;28;20382;-79
2024/02/11 09:47:34;;;;;;;39.85;18.77;;;;;;;;;;5030962;28;20030;-79
2024/02/11 09:50:03;;;;;;;33.95;16.27;;;;;;;;;;5035950;28;20059;-79
2024/02/11 09:52:29;;;;;;;31.65;13.73;;;;;;;;;;5035361;28;20040;-79
2024/02/11 09:54:54;;;;;;;45.00;20.02;;;;;;;;;;5040656;28;20013;-79
2024/02/11 09:57:20;;;;;;;43.30;20.17;;;;;;;;;;5039229;28;20128;-79
2024/02/11 09:59:46;;;;;;;41.13;19.27;;;;;;;;;;5040862;28;20025;-79
2024/02/11 10:02:18;;;;;;;38.53;17.77;;;;;;;;;;5041396;28;20031;-80
2024/02/11 10:04:56;;;;;;;13.23;7.97;;;;;;;;;;5036410;28;20029;-80
2024/02/11 10:07:23;;;;;;;50.17;22.77;;;;;;;;;;5033425;28;20085;-78
2024/02/11 10:09:50;;;;;;;49.80;22.58;;;;;;;;;;5037457;28;20319;-79
2024/02/11 10:12:18;;;;;;;43.95;22.05;;;;;;;;;;5041716;28;20052;-78
2024/02/11 10:14:54;;;;;;;43.08;20.52;;;;;;;;;;5034110;28;20047;-79
2024/02/11 10:17:21;;;;;;;50.03;23.98;;;;;;;;;;5031001;28;20334;-79
2024/02/11 10:19:48;;;;;;;48.28;22.73;;;;;;;;;;5038764;28;20022;-79
2024/02/11 10:22:14;;;;;;;47.70;21.05;;;;;;;;;;5040637;28;20025;-78
2024/02/11 10:24:39;;;;;;;40.78;20.95;;;;;;;;;;5034178;28;20048;-79
2024/02/11 10:27:04;;;;;;;191.13;70.03;;;;;;;;;;5033048;28;20095;-78
2024/02/11 10:29:30;;;;;;;41.42;22.60;;;;;;;;;;5039734;28;20500;-78
2024/02/11 10:31:56;;;;;;;51.13;23.92;;;;;;;;;;5041212;28;20026;-79
2024/02/11 10:34:22;;;;;;;48.40;22.98;;;;;;;;;;5038960;28;20039;-79
2024/02/11 10:36:48;;;;;;;45.97;22.05;;;;;;;;;;5033917;28;20026;-78
2024/02/11 10:39:14;;;;;;;46.90;22.45;;;;;;;;;;5031203;28;20036;-79
2024/02/11 10:41:41;;;;;;;44.95;22.75;;;;;;;;;;5031866;28;20037;-78
2024/02/11 10:44:08;;;;;;;44.58;20.85;;;;;;;;;;5040072;28;20033;-78
2024/02/11 10:46:33;;;;;;;42.42;21.48;;;;;;;;;;5033428;28;20031;-78
2024/02/11 10:49:00;;;;;;;42.55;20.80;;;;;;;;;;5034928;28;20018;-79
2024/02/11 10:51:32;;;;;;;43.97;21.92;;;;;;;;;;5032281;28;20017;-79
2024/02/11 10:54:02;;;;;;;39.15;20.35;;;;;;;;;;5038100;28;20052;-79
2024/02/11 10:56:29;;;;;;;40.10;20.00;;;;;;;;;;5041623;28;20652;-78
2024/02/11 10:59:06;;;;;;;36.45;17.20;;;;;;;;;;5026592;28;20032;-78
2024/02/11 11:01:34;;;;;;;31.90;15.55;;;;;;;;;;5035399;28;20029;-79
2024/02/11 11:04:02;;;;;;;31.95;17.10;;;;;;;;;;5029556;28;20029;-79
2024/02/11 11:06:29;;;;;;;37.88;19.30;;;;;;;;;;5038644;28;20410;-78
2024/02/11 11:08:55;;;;;;;31.42;15.27;;;;;;;;;;5041005;28;20022;-79
2024/02/11 11:11:27;;;;;;;30.75;14.93;;;;;;;;;;5038105;28;20054;-79
2024/02/11 11:14:07;;;;;;;30.02;15.45;;;;;;;;;;5028679;28;20116;-79
2024/02/11 11:16:42;;;;;;;27.70;15.13;;;;;;;;;;5031750;28;20033;-79
2024/02/11 11:19:12;;;;;;;19.40;10.55;;;;;;;;;;5033749;28;20490;-78
2024/02/11 11:21:37;;;;;;;14.93;8.90;;;;;;;;;;5038750;28;20032;-79
2024/02/11 11:24:03;;;;;;;8.10;5.50;;;;;;;;;;5034599;28;20013;-80
2024/02/11 11:26:28;;;;;;;15.02;7.75;;;;;;;;;;5033172;28;20554;-78
2024/02/11 11:29:03;;;;;;;18.48;9.85;;;;;;;;;;5036059;28;20021;-78
2024/02/11 11:31:34;;;;;;;16.23;8.63;;;;;;;;;;5029450;28;20033;-78
2024/02/11 11:34:00;;;;;;;9.77;5.38;;;;;;;;;;5041199;28;20017;-78
2024/02/11 11:36:25;;;;;;;8.65;5.45;;;;;;;;;;5037298;28;20031;-78
2024/02/11 11:38:51;;;;;;;9.10;6.07;;;;;;;;;;5039649;28;20060;-76
2024/02/11 11:41:17;;;;;;;8.05;5.25;;;;;;;;;;5033527;28;20120;-78
2024/02/11 11:43:42;;;;;;;5.38;3.55;;;;;;;;;;5029571;28;20461;-79
2024/02/11 11:46:08;;;;;;;10.15;5.07;;;;;;;;;;5030458;28;20033;-78
2024/02/11 11:48:36;;;;;;;7.47;5.10;;;;;;;;;;5034939;28;20021;-78
2024/02/11 11:51:03;;;;;;;7.80;5.82;;;;;;;;;;5037282;28;20024;-78
2024/02/11 11:53:29;;;;;;;6.82;4.95;;;;;;;;;;5026946;28;20064;-78
2024/02/11 11:56:01;;;;;;;7.20;4.45;;;;;;;;;;5035368;28;20025;-78
2024/02/11 11:58:27;;;;;;;;;;;;;;;;;;5032246;28;20567;-78
2024/02/11 12:01:07;;;;;;;8.13;4.80;;;;;;;;;;5033252;28;20417;-79
2024/02/11 12:03:34;;;;;;;7.95;5.70;;;;;;;;;;5039004;28;20044;-79
2024/02/11 12:06:00;;;;;;;5.88;3.42;;;;;;;;;;5042323;28;20036;-78
2024/02/11 12:08:26;;;;;;;4.47;3.15;;;;;;;;;;5038211;28;20025;-79
2024/02/11 12:11:00;;;;;;;5.97;4.50;;;;;;;;;;5028218;28;20029;-79
2024/02/11 12:13:28;;;;;;;7.55;4.85;;;;;;;;;;5031064;28;20034;-79
2024/02/11 12:15:55;;;;;;;6.32;4.15;;;;;;;;;;5031672;28;20032;-80
2024/02/11 12:18:22;;;;;;;4.70;3.83;;;;;;;;;;5031708;28;20517;-79
2024/02/11 12:20:47;;;;;;;4.00;3.60;;;;;;;;;;5030438;28;20382;-80
2024/02/11 12:23:14;;;;;;;4.55;3.55;;;;;;;;;;5028508;28;20032;-79
2024/02/11 12:25:41;;;;;;;4.78;3.70;;;;;;;;;;5031833;28;20029;-80
2024/02/11 12:28:06;;;;;;;5.03;3.72;;;;;;;;;;5032890;28;20025;-79
2024/02/11 12:30:33;;;;;;;5.07;3.47;;;;;;;;;;5034515;28;20053;-81
2024/02/11 12:32:59;;;;;;;5.80;4.03;;;;;;;;;;5041660;28;20437;-79
2024/02/11 12:35:32;;;;;;;3.00;2.50;;;;;;;;;;5032921;28;20037;-79
2024/02/11 12:38:00;;;;;;;3.85;2.97;;;;;;;;;;5031375;28;20036;-79
2024/02/11 12:40:26;;;;;;;3.15;2.47;;;;;;;;;;5024353;28;20776;-79
2024/02/11 12:42:58;;;;;;;4.30;3.30;;;;;;;;;;5040784;28;20056;-78
2024/02/11 12:45:23;;;;;;;3.55;2.80;;;;;;;;;;5028342;28;20435;-79
2024/02/11 12:47:49;;;;;;;3.72;3.05;;;;;;;;;;5020441;28;20121;-79
2024/02/11 12:50:18;;;;;;;3.63;2.53;;;;;;;;;;5029223;28;20537;-80
2024/02/11 12:52:44;;;;;;;2.75;2.08;;;;;;;;;;5025057;28;20028;-80
2024/02/11 12:55:09;;;;;;;3.15;2.53;;;;;;;;;;5026311;28;20029;-80
2024/02/11 12:57:35;;;;;;;2.67;2.28;;;;;;;;;;5025481;28;20036;-81
2024/02/11 13:00:00;;;;;;;4.60;2.55;;;;;;;;;;5041888;28;20025;-79
2024/02/11 13:02:26;;;;;;;3.33;2.65;;;;;;;;;;5023246;28;20404;-80
2024/02/11 13:04:51;;;;;;;3.15;2.45;;;;;;;;;;5026361;28;20033;-78
2024/02/11 13:07:17;;;;;;;3.45;2.55;;;;;;;;;;5043445;28;20565;-80
2024/02/11 13:09:43;;;;;;;4.13;2.65;;;;;;;;;;5023467;28;20029;-80
2024/02/11 13:12:09;;;;;;;2.53;2.20;;;;;;;;;;5024273;28;20119;-81
2024/02/11 13:14:36;;;;;;;2.30;2.10;;;;;;;;;;5027534;28;20018;-80
2024/02/11 13:17:02;;;;;;;2.42;2.22;;;;;;;;;;5030198;28;20117;-78
2024/02/11 13:19:27;;;;;;;2.58;2.22;;;;;;;;;;5024263;28;20053;-80
2024/02/11 13:21:54;;;;;;;2.70;2.08;;;;;;;;;;5029686;28;20025;-80
2024/02/11 13:24:19;;;;;;;2.92;2.10;;;;;;;;;;5021547;28;20288;-80
2024/02/11 13:26:48;;;;;;;1.98;1.75;;;;;;;;;;5029248;28;20029;-80
2024/02/11 13:29:14;;;;;;;2.05;1.50;;;;;;;;;;5025508;28;20029;-79
2024/02/11 13:31:42;;;;;;;2.45;1.80;;;;;;;;;;5023955;28;20022;-80
2024/02/11 13:34:07;;;;;;;1.65;1.55;;;;;;;;;;5029130;28;20037;-79
2024/02/11 13:36:33;;;;;;;1.58;1.42;;;;;;;;;;5029212;28;20032;-79
2024/02/11 13:38:59;;;;;;;1.58;1.30;;;;;;;;;;5030964;28;20627;-80
2024/02/11 13:41:25;;;;;;;1.35;1.25;;;;;;;;;;5031660;28;20030;-79
2024/02/11 13:43:50;;;;;;;1.83;1.20;;;;;;;;;;5034146;28;20064;-78
2024/02/11 13:46:15;;;;;;;1.50;1.20;;;;;;;;;;5034625;28;20055;-79
2024/02/11 13:48:41;;;;;;;2.35;1.38;;;;;;;;;;5036306;28;20028;-80
2024/02/11 13:51:09;;;;;;;3.38;1.50;;;;;;;;;;5038318;28;20025;-79
2024/02/11 13:53:38;;;;;;;1.02;0.95;;;;;;;;;;5041690;28;20017;-80
2024/02/11 13:56:05;;;;;;;2.35;1.17;;;;;;;;;;5044137;28;20377;-79
2024/02/11 13:58:31;;;;;;;1.40;1.30;;;;;;;;;;5041882;28;20036;-79
2024/02/11 14:01:16;;;;;;;1.40;1.00;;;;;;;;;;5038804;28;20025;-79
2024/02/11 14:04:33;;;;;;;1.20;1.10;;;;;;;;;;5034067;28;20081;-79
2024/02/11 14:07:17;;;;;;;0.95;0.95;;;;;;;;;;5051398;28;20044;-79
2024/02/11 14:09:44;;;;;;;2.33;2.00;;;;;;;;;;5031177;28;20037;-79
2024/02/11 14:12:29;;;;;;;2.70;1.77;;;;;;;;;;5036679;28;20024;-79
2024/02/11 14:14:55;;;;;;;1.42;1.30;;;;;;;;;;5036012;28;20029;-79
2024/02/11 14:17:21;;;;;;;1.75;1.60;;;;;;;;;;5043382;28;20029;-79
2024/02/11 14:19:46;;;;;;;2.00;1.80;;;;;;;;;;5031549;28;20026;-79
2024/02/11 14:22:12;;;;;;;1.80;1.70;;;;;;;;;;5036162;28;20081;-79
2024/02/11 14:24:38;;;;;;;3.40;2.03;;;;;;;;;;5036431;28;20021;-79
2024/02/11 14:27:03;;;;;;;3.05;2.45;;;;;;;;;;5033372;28;20026;-80
2024/02/11 14:29:32;;;;;;;2.65;2.38;;;;;;;;;;5035708;28;20068;-79